KAKH/AKH METAR and TAF weather

Enter ICAO airport designator
Station Type Date Time Source
KAKH METAR 2019/10/18 06:54 UTC NOAA

KAKH 180654Z AUTO 00000KT 10SM CLR 08/04 A2999 RMK AO2 SLP153 T00780039


Station Type Date Time Source
KAKH Decoded METAR 2019/10/18 06:54 UTC NOAA

GASTONIA MUNICIPAL AIRPORT, NC, United States (KAKH) 35-12N 81-09W 243M
Oct 18, 2019 - 02:54 AM EDT / 2019.10.18 0654 UTC
Wind: Calm:0
Visibility: 10 mile(s):0
Sky conditions: clear
Temperature: 46.0 F (7.8 C)
Dew Point: 39.0 F (3.9 C)
Relative Humidity: 76%
Pressure (altimeter): 29.99 in. Hg (1015 hPa)
ob: KAKH 180654Z AUTO 00000KT 10SM CLR 08/04 A2999 RMK AO2 SLP153 T00780039
cycle: 7

Station Type Date Time Source
KAKH TAF UTC NOAA

Error!

Example: see airport list